sensor_id;sensor_type;location;lat;lon;timestamp;pressure;altitude;pressure_sealevel;temperature;humidity
71476;BME280;59286;59.274;17.974;2023-02-03T00:01:10;101172.22;;;-9.44;84.88
71476;BME280;59286;59.274;17.974;2023-02-03T00:03:36;101103.69;;;-9.86;84.82
71476;BME280;59286;59.274;17.974;2023-02-03T00:06:04;101120.03;;;-9.80;84.81
71476;BME280;59286;59.274;17.974;2023-02-03T00:08:30;101173.94;;;-9.53;83.45
71476;BME280;59286;59.274;17.974;2023-02-03T00:10:56;101197.00;;;-9.38;83.54
71476;BME280;59286;59.274;17.974;2023-02-03T00:13:22;101172.34;;;-9.54;84.48
71476;BME280;59286;59.274;17.974;2023-02-03T00:15:50;101166.84;;;-9.41;83.94
71476;BME280;59286;59.274;17.974;2023-02-03T00:18:15;101150.97;;;-9.51;85.27
71476;BME280;59286;59.274;17.974;2023-02-03T00:20:40;101109.91;;;-9.80;86.06
71476;BME280;59286;59.274;17.974;2023-02-03T00:23:08;101098.19;;;-9.81;86.39
71476;BME280;59286;59.274;17.974;2023-02-03T00:25:34;101155.78;;;-9.32;86.93
71476;BME280;59286;59.274;17.974;2023-02-03T00:27:59;101103.31;;;-9.65;87.93
71476;BME280;59286;59.274;17.974;2023-02-03T00:30:25;101086.19;;;-9.71;87.70
71476;BME280;59286;59.274;17.974;2023-02-03T00:32:50;101085.28;;;-9.62;86.90
71476;BME280;59286;59.274;17.974;2023-02-03T00:35:16;101083.72;;;-9.55;85.69
71476;BME280;59286;59.274;17.974;2023-02-03T00:37:41;101025.84;;;-9.94;84.22
71476;BME280;59286;59.274;17.974;2023-02-03T00:40:07;101083.72;;;-9.55;84.87
71476;BME280;59286;59.274;17.974;2023-02-03T00:42:35;101133.78;;;-9.24;84.51
71476;BME280;59286;59.274;17.974;2023-02-03T00:45:01;101118.69;;;-9.33;83.19
71476;BME280;59286;59.274;17.974;2023-02-03T00:47:26;101039.81;;;-9.98;83.91
71476;BME280;59286;59.274;17.974;2023-02-03T00:49:52;101053.84;;;-9.77;83.63
71476;BME280;59286;59.274;17.974;2023-02-03T00:52:17;101104.50;;;-9.52;83.00
71476;BME280;59286;59.274;17.974;2023-02-03T00:54:43;101021.06;;;-10.05;82.10
71476;BME280;59286;59.274;17.974;2023-02-03T00:57:08;101064.88;;;-9.86;83.19
71476;BME280;59286;59.274;17.974;2023-02-03T00:59:33;101054.91;;;-9.80;83.21
71476;BME280;59286;59.274;17.974;2023-02-03T01:01:59;101067.44;;;-9.78;83.33
71476;BME280;59286;59.274;17.974;2023-02-03T01:04:24;101026.44;;;-10.08;85.68
71476;BME280;59286;59.274;17.974;2023-02-03T01:06:50;101010.72;;;-10.19;85.88
71476;BME280;59286;59.274;17.974;2023-02-03T01:09:20;101016.94;;;-10.06;86.24
71476;BME280;59286;59.274;17.974;2023-02-03T01:11:45;101080.28;;;-9.80;84.68
71476;BME280;59286;59.274;17.974;2023-02-03T01:14:11;101029.75;;;-10.15;83.81
71476;BME280;59286;59.274;17.974;2023-02-03T01:16:36;101010.53;;;-10.26;83.99
71476;BME280;59286;59.274;17.974;2023-02-03T01:19:03;100993.09;;;-10.29;83.49
71476;BME280;59286;59.274;17.974;2023-02-03T01:21:29;101067.75;;;-9.81;82.41
71476;BME280;59286;59.274;17.974;2023-02-03T01:23:54;101030.09;;;-10.10;82.69
71476;BME280;59286;59.274;17.974;2023-02-03T01:26:21;101080.75;;;-9.76;83.36
71476;BME280;59286;59.274;17.974;2023-02-03T01:28:52;101024.53;;;-10.14;84.30
71476;BME280;59286;59.274;17.974;2023-02-03T01:31:21;101004.84;;;-10.20;84.13
71476;BME280;59286;59.274;17.974;2023-02-03T01:33:47;101068.88;;;-9.76;84.35
71476;BME280;59286;59.274;17.974;2023-02-03T01:36:16;101015.34;;;-10.15;84.84
71476;BME280;59286;59.274;17.974;2023-02-03T01:38:42;101061.69;;;-9.88;84.33
71476;BME280;59286;59.274;17.974;2023-02-03T01:41:12;101050.22;;;-10.01;84.43
71476;BME280;59286;59.274;17.974;2023-02-03T01:43:40;101018.81;;;-10.08;84.34
71476;BME280;59286;59.274;17.974;2023-02-03T01:46:21;101065.28;;;-9.73;83.54
71476;BME280;59286;59.274;17.974;2023-02-03T01:48:49;101059.50;;;-9.83;83.21
71476;BME280;59286;59.274;17.974;2023-02-03T01:51:15;100983.94;;;-10.22;82.23
71476;BME280;59286;59.274;17.974;2023-02-03T01:53:40;100962.59;;;-10.45;81.93
71476;BME280;59286;59.274;17.974;2023-02-03T01:56:06;100998.84;;;-10.19;82.41
71476;BME280;59286;59.274;17.974;2023-02-03T01:58:35;101000.69;;;-10.29;82.12
71476;BME280;59286;59.274;17.974;2023-02-03T02:01:02;101006.25;;;-10.25;82.33
71476;BME280;59286;59.274;17.974;2023-02-03T02:03:43;101003.22;;;-10.29;82.48
71476;BME280;59286;59.274;17.974;2023-02-03T02:06:11;100996.22;;;-10.35;82.78
71476;BME280;59286;59.274;17.974;2023-02-03T02:08:39;101008.59;;;-10.32;83.80
71476;BME280;59286;59.274;17.974;2023-02-03T02:11:05;101040.56;;;-10.05;84.56
71476;BME280;59286;59.274;17.974;2023-02-03T02:13:33;101043.56;;;-10.02;84.01
71476;BME280;59286;59.274;17.974;2023-02-03T02:16:16;100999.94;;;-10.21;83.58
71476;BME280;59286;59.274;17.974;2023-02-03T02:21:40;101036.84;;;-9.85;84.63
71476;BME280;59286;59.274;17.974;2023-02-03T02:30:07;101011.78;;;-9.88;83.16
71476;BME280;59286;59.274;17.974;2023-02-03T02:32:53;101019.53;;;-9.89;82.43
71476;BME280;59286;59.274;17.974;2023-02-03T02:38:58;100985.88;;;-10.16;83.13
71476;BME280;59286;59.274;17.974;2023-02-03T02:41:35;101015.22;;;-10.05;83.93
71476;BME280;59286;59.274;17.974;2023-02-03T02:44:13;100985.53;;;-10.21;82.91
71476;BME280;59286;59.274;17.974;2023-02-03T02:46:47;100987.59;;;-10.16;82.90
71476;BME280;59286;59.274;17.974;2023-02-03T02:49:26;100987.31;;;-10.13;81.97
71476;BME280;59286;59.274;17.974;2023-02-03T02:51:55;100967.47;;;-10.26;81.88
71476;BME280;59286;59.274;17.974;2023-02-03T02:54:23;100972.88;;;-10.21;81.91
71476;BME280;59286;59.274;17.974;2023-02-03T02:56:53;100945.72;;;-10.36;82.04
71476;BME280;59286;59.274;17.974;2023-02-03T02:59:20;100967.81;;;-10.21;83.31
71476;BME280;59286;59.274;17.974;2023-02-03T03:01:45;100973.78;;;-10.22;83.95
71476;BME280;59286;59.274;17.974;2023-02-03T03:04:12;100927.50;;;-10.40;83.08
71476;BME280;59286;59.274;17.974;2023-02-03T03:06:45;100936.06;;;-10.33;82.59
71476;BME280;59286;59.274;17.974;2023-02-03T03:09:16;100917.03;;;-10.45;84.50
71476;BME280;59286;59.274;17.974;2023-02-03T03:11:50;100942.91;;;-10.25;83.52
71476;BME280;59286;59.274;17.974;2023-02-03T03:14:18;100910.41;;;-10.38;83.29
71476;BME280;59286;59.274;17.974;2023-02-03T03:16:58;100924.34;;;-10.34;83.66
71476;BME280;59286;59.274;17.974;2023-02-03T03:19:30;100928.19;;;-10.30;82.87
71476;BME280;59286;59.274;17.974;2023-02-03T03:22:01;100965.63;;;-10.08;81.47
71476;BME280;59286;59.274;17.974;2023-02-03T03:24:36;100908.63;;;-10.45;80.87
71476;BME280;59286;59.274;17.974;2023-02-03T03:27:13;100941.94;;;-10.32;80.79
71476;BME280;59286;59.274;17.974;2023-02-03T03:29:41;100958.31;;;-10.19;80.37
71476;BME280;59286;59.274;17.974;2023-02-03T03:32:08;100889.88;;;-10.60;80.85
71476;BME280;59286;59.274;17.974;2023-02-03T03:34:33;100899.50;;;-10.64;81.70
71476;BME280;59286;59.274;17.974;2023-02-03T03:37:00;100950.50;;;-10.33;82.37
71476;BME280;59286;59.274;17.974;2023-02-03T03:45:09;100949.38;;;-10.31;83.36
71476;BME280;59286;59.274;17.974;2023-02-03T03:47:50;100941.34;;;-10.26;83.57
71476;BME280;59286;59.274;17.974;2023-02-03T03:50:24;100937.56;;;-10.22;82.97
71476;BME280;59286;59.274;17.974;2023-02-03T03:52:52;100922.81;;;-10.27;82.59
71476;BME280;59286;59.274;17.974;2023-02-03T03:55:19;100922.84;;;-10.19;81.75
71476;BME280;59286;59.274;17.974;2023-02-03T03:57:54;100909.00;;;-10.32;81.98
71476;BME280;59286;59.274;17.974;2023-02-03T04:00:23;100930.41;;;-10.27;80.65
71476;BME280;59286;59.274;17.974;2023-02-03T04:02:51;100916.91;;;-10.35;80.84
71476;BME280;59286;59.274;17.974;2023-02-03T04:05:18;100938.69;;;-10.17;80.70
71476;BME280;59286;59.274;17.974;2023-02-03T04:07:46;100905.91;;;-10.52;81.95
71476;BME280;59286;59.274;17.974;2023-02-03T04:10:35;100936.06;;;-10.33;81.78
71476;BME280;59286;59.274;17.974;2023-02-03T04:13:01;100934.50;;;-10.34;81.42
71476;BME280;59286;59.274;17.974;2023-02-03T04:15:28;100936.06;;;-10.33;80.57
71476;BME280;59286;59.274;17.974;2023-02-03T04:17:53;100915.94;;;-10.42;81.42
71476;BME280;59286;59.274;17.974;2023-02-03T04:20:21;100886.53;;;-10.61;83.09
71476;BME280;59286;59.274;17.974;2023-02-03T04:22:46;100906.75;;;-10.43;82.30
71476;BME280;59286;59.274;17.974;2023-02-03T04:25:12;100918.06;;;-10.30;82.58
71476;BME280;59286;59.274;17.974;2023-02-03T04:27:37;100895.31;;;-10.47;81.24
71476;BME280;59286;59.274;17.974;2023-02-03T04:30:03;100862.03;;;-10.60;81.37
71476;BME280;59286;59.274;17.974;2023-02-03T04:32:29;100858.69;;;-10.69;80.79
71476;BME280;59286;59.274;17.974;2023-02-03T04:34:56;100927.22;;;-10.29;80.44
71476;BME280;59286;59.274;17.974;2023-02-03T04:37:22;100905.19;;;-10.36;81.56
71476;BME280;59286;59.274;17.974;2023-02-03T04:39:48;100886.91;;;-10.48;80.94
71476;BME280;59286;59.274;17.974;2023-02-03T04:42:16;100900.44;;;-10.39;80.89
71476;BME280;59286;59.274;17.974;2023-02-03T04:44:41;100904.53;;;-10.38;81.11
71476;BME280;59286;59.274;17.974;2023-02-03T04:47:07;100878.03;;;-10.60;81.75
71476;BME280;59286;59.274;17.974;2023-02-03T04:49:32;100869.19;;;-10.56;81.59
71476;BME280;59286;59.274;17.974;2023-02-03T04:51:57;100862.03;;;-10.60;81.33
71476;BME280;59286;59.274;17.974;2023-02-03T04:54:23;100889.81;;;-10.35;81.62
71476;BME280;59286;59.274;17.974;2023-02-03T04:56:48;100868.28;;;-10.47;80.79
71476;BME280;59286;59.274;17.974;2023-02-03T04:59:13;100886.69;;;-10.29;81.00
71476;BME280;59286;59.274;17.974;2023-02-03T05:01:38;100864.19;;;-10.40;80.59
71476;BME280;59286;59.274;17.974;2023-02-03T05:04:04;100843.38;;;-10.59;80.47
71476;BME280;59286;59.274;17.974;2023-02-03T05:06:29;100860.03;;;-10.49;81.32
71476;BME280;59286;59.274;17.974;2023-02-03T05:08:57;100857.97;;;-10.45;82.12
71476;BME280;59286;59.274;17.974;2023-02-03T05:11:22;100863.09;;;-10.37;82.14
71476;BME280;59286;59.274;17.974;2023-02-03T05:13:48;100816.78;;;-10.63;81.90
71476;BME280;59286;59.274;17.974;2023-02-03T05:16:14;100803.63;;;-10.67;82.23
71476;BME280;59286;59.274;17.974;2023-02-03T05:18:40;100781.44;;;-10.73;81.97
71476;BME280;59286;59.274;17.974;2023-02-03T05:21:06;100859.03;;;-10.22;82.10
71476;BME280;59286;59.274;17.974;2023-02-03T05:23:31;100808.09;;;-10.53;81.81
71476;BME280;59286;59.274;17.974;2023-02-03T05:25:57;100836.50;;;-10.25;81.89
71476;BME280;59286;59.274;17.974;2023-02-03T05:28:22;100804.66;;;-10.44;82.15
71476;BME280;59286;59.274;17.974;2023-02-03T05:30:48;100767.72;;;-10.62;82.07
71476;BME280;59286;59.274;17.974;2023-02-03T05:33:13;100844.78;;;-10.07;82.00
71476;BME280;59286;59.274;17.974;2023-02-03T05:35:39;100848.44;;;-10.02;81.45
71476;BME280;59286;59.274;17.974;2023-02-03T05:38:04;100838.78;;;-9.98;81.52
71476;BME280;59286;59.274;17.974;2023-02-03T05:40:30;100830.34;;;-10.07;81.46
71476;BME280;59286;59.274;17.974;2023-02-03T05:43:13;100805.97;;;-10.16;80.53
71476;BME280;59286;59.274;17.974;2023-02-03T05:45:39;100799.47;;;-10.26;80.81
71476;BME280;59286;59.274;17.974;2023-02-03T05:48:04;100789.50;;;-10.28;80.77
71476;BME280;59286;59.274;17.974;2023-02-03T05:50:31;100800.13;;;-10.24;80.67
71476;BME280;59286;59.274;17.974;2023-02-03T05:52:58;100795.53;;;-10.21;80.46
71476;BME280;59286;59.274;17.974;2023-02-03T05:55:24;100810.44;;;-10.10;79.88
71476;BME280;59286;59.274;17.974;2023-02-03T05:57:50;100777.28;;;-10.32;80.93
71476;BME280;59286;59.274;17.974;2023-02-03T06:00:15;100772.41;;;-10.34;81.21
71476;BME280;59286;59.274;17.974;2023-02-03T06:02:41;100793.63;;;-10.27;82.58
71476;BME280;59286;59.274;17.974;2023-02-03T06:05:07;100797.41;;;-10.31;83.29
71476;BME280;59286;59.274;17.974;2023-02-03T06:07:32;100795.22;;;-10.26;83.88
71476;BME280;59286;59.274;17.974;2023-02-03T06:09:57;100792.69;;;-10.18;83.44
71476;BME280;59286;59.274;17.974;2023-02-03T06:12:23;100758.47;;;-10.30;81.73
71476;BME280;59286;59.274;17.974;2023-02-03T06:14:48;100753.41;;;-10.30;82.52
71476;BME280;59286;59.274;17.974;2023-02-03T06:17:13;100809.50;;;-9.84;82.06
71476;BME280;59286;59.274;17.974;2023-02-03T06:19:39;100746.44;;;-10.28;82.13
71476;BME280;59286;59.274;17.974;2023-02-03T06:22:04;100741.53;;;-10.37;81.80
71476;BME280;59286;59.274;17.974;2023-02-03T06:24:29;100782.56;;;-10.10;82.83
71476;BME280;59286;59.274;17.974;2023-02-03T06:26:55;100755.47;;;-10.25;83.09
71476;BME280;59286;59.274;17.974;2023-02-03T06:29:20;100720.78;;;-10.41;83.66
71476;BME280;59286;59.274;17.974;2023-02-03T06:31:45;100778.75;;;-9.98;82.75
71476;BME280;59286;59.274;17.974;2023-02-03T06:34:11;100805.69;;;-9.80;81.31
71476;BME280;59286;59.274;17.974;2023-02-03T06:36:36;100782.22;;;-9.99;82.76
71476;BME280;59286;59.274;17.974;2023-02-03T06:39:02;100777.50;;;-10.02;82.58
71476;BME280;59286;59.274;17.974;2023-02-03T06:41:27;100780.50;;;-9.98;83.17
71476;BME280;59286;59.274;17.974;2023-02-03T06:43:57;100763.84;;;-10.09;84.41
71476;BME280;59286;59.274;17.974;2023-02-03T06:46:23;100782.88;;;-9.88;84.05
71476;BME280;59286;59.274;17.974;2023-02-03T06:48:53;100785.06;;;-9.94;81.75
71476;BME280;59286;59.274;17.974;2023-02-03T06:51:18;100802.84;;;-9.85;82.33
71476;BME280;59286;59.274;17.974;2023-02-03T06:53:44;100784.31;;;-9.94;81.00
71476;BME280;59286;59.274;17.974;2023-02-03T06:56:09;100824.41;;;-9.73;80.99
71476;BME280;59286;59.274;17.974;2023-02-03T06:58:34;100781.28;;;-10.14;81.62
71476;BME280;59286;59.274;17.974;2023-02-03T07:01:00;100817.38;;;-9.96;81.86
71476;BME280;59286;59.274;17.974;2023-02-03T07:03:25;100773.34;;;-10.27;82.24
71476;BME280;59286;59.274;17.974;2023-02-03T07:05:50;100760.38;;;-10.24;81.83
71476;BME280;59286;59.274;17.974;2023-02-03T07:08:16;100815.97;;;-9.90;81.83
71476;BME280;59286;59.274;17.974;2023-02-03T07:10:41;100820.91;;;-9.80;82.42
71476;BME280;59286;59.274;17.974;2023-02-03T07:13:07;100802.84;;;-9.85;81.88
71476;BME280;59286;59.274;17.974;2023-02-03T07:15:53;100777.31;;;-10.00;82.09
71476;BME280;59286;59.274;17.974;2023-02-03T07:18:18;100815.84;;;-9.64;82.65
71476;BME280;59286;59.274;17.974;2023-02-03T07:20:48;100824.53;;;-9.51;82.06
71476;BME280;59286;59.274;17.974;2023-02-03T07:23:14;100810.75;;;-9.48;82.19
71476;BME280;59286;59.274;17.974;2023-02-03T07:25:39;100778.28;;;-9.61;81.89
71476;BME280;59286;59.274;17.974;2023-02-03T07:28:04;100768.44;;;-9.64;81.82
71476;BME280;59286;59.274;17.974;2023-02-03T07:30:30;100792.03;;;-9.39;82.34
71476;BME280;59286;59.274;17.974;2023-02-03T07:32:55;100759.22;;;-9.49;82.50
71476;BME280;59286;59.274;17.974;2023-02-03T07:35:24;100767.00;;;-9.42;82.55
71476;BME280;59286;59.274;17.974;2023-02-03T07:37:50;100789.63;;;-9.17;82.99
71476;BME280;59286;59.274;17.974;2023-02-03T07:40:15;100747.31;;;-9.24;83.36
71476;BME280;59286;59.274;17.974;2023-02-03T07:42:46;100738.56;;;-9.14;83.23
71476;BME280;59286;59.274;17.974;2023-02-03T07:45:14;100748.94;;;-8.93;81.49
71476;BME280;59286;59.274;17.974;2023-02-03T07:47:42;100824.44;;;-8.32;81.11
71476;BME280;59286;59.274;17.974;2023-02-03T07:50:09;100792.72;;;-8.44;81.41
71476;BME280;59286;59.274;17.974;2023-02-03T07:52:36;100795.31;;;-8.29;81.70
71476;BME280;59286;59.274;17.974;2023-02-03T07:55:02;100828.34;;;-7.99;81.96
71476;BME280;59286;59.274;17.974;2023-02-03T07:57:27;100813.75;;;-8.05;81.94
71476;BME280;59286;59.274;17.974;2023-02-03T07:59:53;100761.84;;;-8.33;81.51
71476;BME280;59286;59.274;17.974;2023-02-03T08:02:18;100791.06;;;-8.14;81.99
71476;BME280;59286;59.274;17.974;2023-02-03T08:04:43;100836.47;;;-7.80;83.51
71476;BME280;59286;59.274;17.974;2023-02-03T08:07:09;100771.59;;;-8.22;85.13
71476;BME280;59286;59.274;17.974;2023-02-03T08:09:34;100768.03;;;-8.13;86.07
71476;BME280;59286;59.274;17.974;2023-02-03T08:11:59;100785.03;;;-7.91;86.72
71476;BME280;59286;59.274;17.974;2023-02-03T08:14:25;100769.31;;;-7.94;87.33
71476;BME280;59286;59.274;17.974;2023-02-03T08:16:50;100764.63;;;-7.82;87.15
71476;BME280;59286;59.274;17.974;2023-02-03T08:19:16;100772.38;;;-7.76;86.72
71476;BME280;59286;59.274;17.974;2023-02-03T08:21:41;100772.47;;;-7.69;87.19
71476;BME280;59286;59.274;17.974;2023-02-03T08:24:07;100770.19;;;-7.64;87.16
71476;BME280;59286;59.274;17.974;2023-02-03T08:26:35;100796.53;;;-7.35;87.37
71476;BME280;59286;59.274;17.974;2023-02-03T08:29:00;100796.44;;;-7.27;87.68
71476;BME280;59286;59.274;17.974;2023-02-03T08:31:25;100830.63;;;-6.92;88.45
71476;BME280;59286;59.274;17.974;2023-02-03T08:33:51;100790.03;;;-7.08;87.83
71476;BME280;59286;59.274;17.974;2023-02-03T08:36:16;100744.47;;;-7.18;87.80
71476;BME280;59286;59.274;17.974;2023-02-03T08:38:43;100758.28;;;-6.98;87.56
71476;BME280;59286;59.274;17.974;2023-02-03T08:41:14;100782.41;;;-6.79;88.00
71476;BME280;59286;59.274;17.974;2023-02-03T08:43:40;100770.16;;;-6.69;88.22
71476;BME280;59286;59.274;17.974;2023-02-03T08:46:08;100810.38;;;-6.35;87.65
71476;BME280;59286;59.274;17.974;2023-02-03T08:48:37;100796.25;;;-6.38;87.58
71476;BME280;59286;59.274;17.974;2023-02-03T08:51:11;100834.53;;;-5.96;87.48
71476;BME280;59286;59.274;17.974;2023-02-03T08:53:37;100849.75;;;-5.81;87.53
71476;BME280;59286;59.274;17.974;2023-02-03T08:56:05;100767.97;;;-6.22;87.14
71476;BME280;59286;59.274;17.974;2023-02-03T08:58:31;100791.53;;;-5.99;87.68
71476;BME280;59286;59.274;17.974;2023-02-03T09:01:22;100777.81;;;-5.98;88.42
71476;BME280;59286;59.274;17.974;2023-02-03T09:03:48;100755.56;;;-6.04;88.59
71476;BME280;59286;59.274;17.974;2023-02-03T09:06:13;100769.09;;;-5.82;88.62
71476;BME280;59286;59.274;17.974;2023-02-03T09:08:41;100833.34;;;-5.30;88.97
71476;BME280;59286;59.274;17.974;2023-02-03T09:11:11;100823.97;;;-5.23;88.76
71476;BME280;59286;59.274;17.974;2023-02-03T09:13:38;100808.94;;;-5.32;88.52
71476;BME280;59286;59.274;17.974;2023-02-03T09:16:05;100791.53;;;-5.22;89.13
71476;BME280;59286;59.274;17.974;2023-02-03T09:18:31;100791.38;;;-5.14;89.08
71476;BME280;59286;59.274;17.974;2023-02-03T09:21:05;100771.69;;;-5.20;89.16
71476;BME280;59286;59.274;17.974;2023-02-03T09:23:30;100814.00;;;-4.77;88.97
71476;BME280;59286;59.274;17.974;2023-02-03T09:26:00;100770.66;;;-4.98;88.89
71476;BME280;59286;59.274;17.974;2023-02-03T09:28:26;100786.88;;;-4.78;88.72
71476;BME280;59286;59.274;17.974;2023-02-03T09:30:51;100803.50;;;-4.54;88.62
71476;BME280;59286;59.274;17.974;2023-02-03T09:33:24;100800.75;;;-4.53;88.72
71476;BME280;59286;59.274;17.974;2023-02-03T09:35:53;100788.56;;;-4.51;88.48
71476;BME280;59286;59.274;17.974;2023-02-03T09:38:19;100835.72;;;-4.13;88.00
71476;BME280;59286;59.274;17.974;2023-02-03T09:40:46;100789.03;;;-4.28;87.93
71476;BME280;59286;59.274;17.974;2023-02-03T09:43:37;100854.09;;;-3.76;87.83
71476;BME280;59286;59.274;17.974;2023-02-03T09:46:23;100848.03;;;-3.75;87.60
71476;BME280;59286;59.274;17.974;2023-02-03T09:48:58;100847.44;;;-3.64;87.32
71476;BME280;59286;59.274;17.974;2023-02-03T09:52:16;100851.38;;;-3.55;87.45
71476;BME280;59286;59.274;17.974;2023-02-03T09:54:24;100876.63;;;-3.33;87.24
71476;BME280;59286;59.274;17.974;2023-02-03T09:56:52;100847.06;;;-3.42;86.81
71476;BME280;59286;59.274;17.974;2023-02-03T09:59:22;100873.88;;;-3.18;86.69
71476;BME280;59286;59.274;17.974;2023-02-03T10:02:01;100852.59;;;-3.25;86.61
71476;BME280;59286;59.274;17.974;2023-02-03T10:04:40;100891.03;;;-2.99;86.11
71476;BME280;59286;59.274;17.974;2023-02-03T10:07:28;100869.50;;;-2.98;86.33
71476;BME280;59286;59.274;17.974;2023-02-03T10:13:13;100878.56;;;-2.69;85.88
71476;BME280;59286;59.274;17.974;2023-02-03T10:18:21;100857.44;;;-2.71;85.36
71476;BME280;59286;59.274;17.974;2023-02-03T10:21:03;100881.25;;;-2.45;85.42
71476;BME280;59286;59.274;17.974;2023-02-03T10:23:35;100885.34;;;-2.31;85.04
71476;BME280;59286;59.274;17.974;2023-02-03T10:26:25;100867.00;;;-2.34;84.53
71476;BME280;59286;59.274;17.974;2023-02-03T10:28:53;100879.19;;;-2.23;84.54
71476;BME280;59286;59.274;17.974;2023-02-03T10:31:22;100874.63;;;-2.15;84.54
71476;BME280;59286;59.274;17.974;2023-02-03T10:33:55;100888.00;;;-2.00;84.14
71476;BME280;59286;59.274;17.974;2023-02-03T10:39:20;100876.00;;;-2.12;84.18
71476;BME280;59286;59.274;17.974;2023-02-03T10:41:47;100885.44;;;-2.00;83.82
71476;BME280;59286;59.274;17.974;2023-02-03T10:44:13;100887.75;;;-1.91;84.01
71476;BME280;59286;59.274;17.974;2023-02-03T10:46:40;100893.25;;;-1.81;84.33
71476;BME280;59286;59.274;17.974;2023-02-03T10:49:08;100888.47;;;-1.78;83.90
71476;BME280;59286;59.274;17.974;2023-02-03T10:51:39;100876.44;;;-1.77;83.68
71476;BME280;59286;59.274;17.974;2023-02-03T10:54:27;100886.44;;;-1.69;83.85
71476;BME280;59286;59.274;17.974;2023-02-03T10:56:54;100858.81;;;-1.74;84.07
71476;BME280;59286;59.274;17.974;2023-02-03T10:59:30;100882.81;;;-1.55;84.16
71476;BME280;59286;59.274;17.974;2023-02-03T11:01:57;100887.13;;;-1.49;84.06
71476;BME280;59286;59.274;17.974;2023-02-03T11:06:58;100892.56;;;-1.39;83.73
71476;BME280;59286;59.274;17.974;2023-02-03T11:09:38;100862.78;;;-1.47;83.85
71476;BME280;59286;59.274;17.974;2023-02-03T11:12:12;100891.91;;;-1.28;83.64
71476;BME280;59286;59.274;17.974;2023-02-03T11:14:47;100880.06;;;-1.29;83.96
71476;BME280;59286;59.274;17.974;2023-02-03T11:17:24;100857.63;;;-1.47;83.55
71476;BME280;59286;59.274;17.974;2023-02-03T11:19:53;100888.75;;;-1.30;83.94
71476;BME280;59286;59.274;17.974;2023-02-03T11:22:36;100886.16;;;-1.24;83.78
71476;BME280;59286;59.274;17.974;2023-02-03T11:25:15;100886.53;;;-1.27;83.81
71476;BME280;59286;59.274;17.974;2023-02-03T11:27:41;100886.75;;;-1.28;83.49
71476;BME280;59286;59.274;17.974;2023-02-03T11:30:31;100875.31;;;-1.32;83.92
71476;BME280;59286;59.274;17.974;2023-02-03T11:32:59;100892.47;;;-1.26;83.78
71476;BME280;59286;59.274;17.974;2023-02-03T11:35:27;100864.56;;;-1.47;84.02
71476;BME280;59286;59.274;17.974;2023-02-03T11:37:59;100893.06;;;-1.24;84.28
71476;BME280;59286;59.274;17.974;2023-02-03T11:40:26;100907.59;;;-1.12;83.61
71476;BME280;59286;59.274;17.974;2023-02-03T11:45:43;100911.69;;;-1.04;83.45
71476;BME280;59286;59.274;17.974;2023-02-03T11:50:43;100894.56;;;-1.10;83.80
71476;BME280;59286;59.274;17.974;2023-02-03T11:56:00;100920.59;;;-0.82;83.18
71476;BME280;59286;59.274;17.974;2023-02-03T11:58:54;100914.63;;;-0.76;83.04
71476;BME280;59286;59.274;17.974;2023-02-03T12:09:11;100927.00;;;-0.66;83.25
71476;BME280;59286;59.274;17.974;2023-02-03T12:14:37;100947.59;;;-0.48;82.40
71476;BME280;59286;59.274;17.974;2023-02-03T12:22:42;100944.91;;;-0.53;81.72
71476;BME280;59286;59.274;17.974;2023-02-03T12:25:31;100931.28;;;-0.78;81.29
71476;BME280;59286;59.274;17.974;2023-02-03T12:30:59;100943.50;;;-0.74;81.21
71476;BME280;59286;59.274;17.974;2023-02-03T12:33:30;100961.63;;;-0.62;80.74
71476;BME280;59286;59.274;17.974;2023-02-03T12:36:08;100993.94;;;-0.48;81.19
71476;BME280;59286;59.274;17.974;2023-02-03T12:38:40;100992.16;;;-0.48;81.33
71476;BME280;59286;59.274;17.974;2023-02-03T12:41:33;100992.75;;;-0.46;80.85
71476;BME280;59286;59.274;17.974;2023-02-03T12:44:09;101004.41;;;-0.43;81.01
71476;BME280;59286;59.274;17.974;2023-02-03T12:46:42;100988.50;;;-0.58;80.92
71476;BME280;59286;59.274;17.974;2023-02-03T12:52:11;101017.28;;;-0.43;80.43
71476;BME280;59286;59.274;17.974;2023-02-03T12:58:04;101012.63;;;-0.53;80.66
71476;BME280;59286;59.274;17.974;2023-02-03T13:01:01;101022.47;;;-0.50;80.92
71476;BME280;59286;59.274;17.974;2023-02-03T13:04:05;101016.47;;;-0.62;81.05
71476;BME280;59286;59.274;17.974;2023-02-03T13:06:42;101056.09;;;-0.45;81.01
71476;BME280;59286;59.274;17.974;2023-02-03T13:14:27;101081.00;;;-0.39;80.53
71476;BME280;59286;59.274;17.974;2023-02-03T13:19:44;101093.75;;;-0.50;79.01
71476;BME280;59286;59.274;17.974;2023-02-03T13:22:13;101110.81;;;-0.49;79.34
71476;BME280;59286;59.274;17.974;2023-02-03T13:24:44;101084.78;;;-0.66;78.85
71476;BME280;59286;59.274;17.974;2023-02-03T13:27:24;101089.56;;;-0.69;79.11
71476;BME280;59286;59.274;17.974;2023-02-03T13:30:28;101118.97;;;-0.59;78.64
71476;BME280;59286;59.274;17.974;2023-02-03T13:33:21;101108.97;;;-0.73;78.71
71476;BME280;59286;59.274;17.974;2023-02-03T13:41:55;101129.78;;;-0.75;78.23
71476;BME280;59286;59.274;17.974;2023-02-03T13:44:32;101132.75;;;-0.78;78.35
71476;BME280;59286;59.274;17.974;2023-02-03T13:46:58;101131.22;;;-0.85;77.94
71476;BME280;59286;59.274;17.974;2023-02-03T13:49:30;101106.78;;;-1.08;77.79
71476;BME280;59286;59.274;17.974;2023-02-03T13:51:58;101167.22;;;-0.79;78.10
71476;BME280;59286;59.274;17.974;2023-02-03T13:54:32;101162.28;;;-0.80;78.13
71476;BME280;59286;59.274;17.974;2023-02-03T13:57:19;101153.00;;;-0.88;78.02
71476;BME280;59286;59.274;17.974;2023-02-03T13:59:45;101148.50;;;-0.99;77.78
71476;BME280;59286;59.274;17.974;2023-02-03T14:07:34;101195.53;;;-0.79;77.58
71476;BME280;59286;59.274;17.974;2023-02-03T14:12:37;101190.22;;;-0.90;77.30